sensor_id;sensor_type;location;lat;lon;timestamp;P1;durP1;ratioP1;P2;durP2;ratioP2
33491;SDS011;20010;51.488;7.232;2022-07-22T00:01:00;9.60;;;8.50;;
33491;SDS011;20010;51.488;7.232;2022-07-22T00:03:29;9.75;;;8.95;;
33491;SDS011;20010;51.488;7.232;2022-07-22T00:09:50;9.60;;;8.88;;
33491;SDS011;20010;51.488;7.232;2022-07-22T00:12:52;8.80;;;8.00;;
33491;SDS011;20010;51.488;7.232;2022-07-22T00:15:25;9.15;;;8.27;;
33491;SDS011;20010;51.488;7.232;2022-07-22T00:17:53;9.00;;;8.18;;
33491;SDS011;20010;51.488;7.232;2022-07-22T00:20:26;8.93;;;8.00;;
33491;SDS011;20010;51.488;7.232;2022-07-22T00:22:57;8.60;;;7.82;;
33491;SDS011;20010;51.488;7.232;2022-07-22T00:25:26;9.10;;;8.25;;
33491;SDS011;20010;51.488;7.232;2022-07-22T00:27:56;9.18;;;8.40;;
33491;SDS011;20010;51.488;7.232;2022-07-22T00:30:28;10.50;;;7.75;;
33491;SDS011;20010;51.488;7.232;2022-07-22T00:32:56;8.25;;;7.60;;
33491;SDS011;20010;51.488;7.232;2022-07-22T00:35:27;9.13;;;8.18;;
33491;SDS011;20010;51.488;7.232;2022-07-22T00:38:08;9.30;;;8.60;;
33491;SDS011;20010;51.488;7.232;2022-07-22T00:40:40;9.65;;;8.80;;
33491;SDS011;20010;51.488;7.232;2022-07-22T00:43:52;8.43;;;7.63;;
33491;SDS011;20010;51.488;7.232;2022-07-22T00:46:32;8.85;;;8.20;;
33491;SDS011;20010;51.488;7.232;2022-07-22T00:49:10;8.77;;;8.05;;
33491;SDS011;20010;51.488;7.232;2022-07-22T00:51:40;8.50;;;7.65;;
33491;SDS011;20010;51.488;7.232;2022-07-22T00:54:13;8.20;;;7.45;;
33491;SDS011;20010;51.488;7.232;2022-07-22T00:56:51;9.10;;;7.50;;
33491;SDS011;20010;51.488;7.232;2022-07-22T00:59:20;8.88;;;8.18;;
33491;SDS011;20010;51.488;7.232;2022-07-22T01:01:55;8.80;;;7.70;;
33491;SDS011;20010;51.488;7.232;2022-07-22T01:04:26;10.65;;;9.05;;
33491;SDS011;20010;51.488;7.232;2022-07-22T01:06:57;9.88;;;8.73;;
33491;SDS011;20010;51.488;7.232;2022-07-22T01:09:28;8.15;;;7.18;;
33491;SDS011;20010;51.488;7.232;2022-07-22T01:11:58;9.30;;;8.38;;
33491;SDS011;20010;51.488;7.232;2022-07-22T01:14:34;9.68;;;8.77;;
33491;SDS011;20010;51.488;7.232;2022-07-22T01:17:25;9.95;;;9.15;;
33491;SDS011;20010;51.488;7.232;2022-07-22T01:20:00;9.75;;;8.95;;
33491;SDS011;20010;51.488;7.232;2022-07-22T01:22:30;9.63;;;8.73;;
33491;SDS011;20010;51.488;7.232;2022-07-22T01:25:03;9.35;;;8.57;;
33491;SDS011;20010;51.488;7.232;2022-07-22T01:27:41;10.25;;;9.10;;
33491;SDS011;20010;51.488;7.232;2022-07-22T01:30:24;9.70;;;8.70;;
33491;SDS011;20010;51.488;7.232;2022-07-22T01:32:56;10.27;;;8.13;;
33491;SDS011;20010;51.488;7.232;2022-07-22T01:35:24;9.07;;;8.38;;
33491;SDS011;20010;51.488;7.232;2022-07-22T01:37:56;11.45;;;9.77;;
33491;SDS011;20010;51.488;7.232;2022-07-22T01:40:34;10.80;;;9.95;;
33491;SDS011;20010;51.488;7.232;2022-07-22T01:43:09;11.07;;;10.07;;
33491;SDS011;20010;51.488;7.232;2022-07-22T01:45:51;9.82;;;8.90;;
33491;SDS011;20010;51.488;7.232;2022-07-22T01:48:30;10.90;;;9.90;;
33491;SDS011;20010;51.488;7.232;2022-07-22T01:51:12;12.75;;;10.15;;
33491;SDS011;20010;51.488;7.232;2022-07-22T01:53:40;11.50;;;9.25;;
33491;SDS011;20010;51.488;7.232;2022-07-22T01:56:15;10.75;;;9.55;;
33491;SDS011;20010;51.488;7.232;2022-07-22T01:59:12;11.35;;;10.00;;
33491;SDS011;20010;51.488;7.232;2022-07-22T02:01:44;12.55;;;10.63;;
33491;SDS011;20010;51.488;7.232;2022-07-22T02:04:15;8.93;;;8.07;;
33491;SDS011;20010;51.488;7.232;2022-07-22T02:06:53;10.55;;;9.40;;
33491;SDS011;20010;51.488;7.232;2022-07-22T02:09:26;9.63;;;8.75;;
33491;SDS011;20010;51.488;7.232;2022-07-22T02:12:03;11.05;;;9.57;;
33491;SDS011;20010;51.488;7.232;2022-07-22T02:14:30;10.85;;;9.95;;
33491;SDS011;20010;51.488;7.232;2022-07-22T02:16:59;9.32;;;8.43;;
33491;SDS011;20010;51.488;7.232;2022-07-22T02:19:41;9.57;;;8.65;;
33491;SDS011;20010;51.488;7.232;2022-07-22T02:22:10;9.40;;;8.60;;
33491;SDS011;20010;51.488;7.232;2022-07-22T02:24:52;9.75;;;8.70;;
33491;SDS011;20010;51.488;7.232;2022-07-22T02:27:22;9.00;;;8.15;;
33491;SDS011;20010;51.488;7.232;2022-07-22T02:30:00;10.93;;;8.70;;
33491;SDS011;20010;51.488;7.232;2022-07-22T02:32:36;9.17;;;8.43;;
33491;SDS011;20010;51.488;7.232;2022-07-22T02:35:07;9.65;;;8.57;;
33491;SDS011;20010;51.488;7.232;2022-07-22T02:37:36;9.27;;;8.38;;
33491;SDS011;20010;51.488;7.232;2022-07-22T02:40:05;10.30;;;9.23;;
33491;SDS011;20010;51.488;7.232;2022-07-22T02:42:44;9.48;;;8.65;;
33491;SDS011;20010;51.488;7.232;2022-07-22T02:45:14;9.07;;;8.05;;
33491;SDS011;20010;51.488;7.232;2022-07-22T02:47:50;8.77;;;7.95;;
33491;SDS011;20010;51.488;7.232;2022-07-22T02:50:21;7.80;;;7.10;;
33491;SDS011;20010;51.488;7.232;2022-07-22T02:52:53;8.57;;;7.70;;
33491;SDS011;20010;51.488;7.232;2022-07-22T02:55:20;8.43;;;7.68;;
33491;SDS011;20010;51.488;7.232;2022-07-22T02:58:17;8.50;;;7.70;;
33491;SDS011;20010;51.488;7.232;2022-07-22T03:00:52;11.52;;;7.95;;
33491;SDS011;20010;51.488;7.232;2022-07-22T03:03:24;10.70;;;6.97;;
33491;SDS011;20010;51.488;7.232;2022-07-22T03:05:59;9.02;;;7.88;;
33491;SDS011;20010;51.488;7.232;2022-07-22T03:08:31;8.57;;;7.80;;
33491;SDS011;20010;51.488;7.232;2022-07-22T03:11:00;10.45;;;9.48;;
33491;SDS011;20010;51.488;7.232;2022-07-22T03:13:31;10.32;;;7.82;;
33491;SDS011;20010;51.488;7.232;2022-07-22T03:16:01;9.73;;;8.75;;
33491;SDS011;20010;51.488;7.232;2022-07-22T03:18:42;9.93;;;7.85;;
33491;SDS011;20010;51.488;7.232;2022-07-22T03:21:14;8.25;;;7.53;;
33491;SDS011;20010;51.488;7.232;2022-07-22T03:23:44;9.82;;;8.10;;
33491;SDS011;20010;51.488;7.232;2022-07-22T03:26:13;7.53;;;6.83;;
33491;SDS011;20010;51.488;7.232;2022-07-22T03:28:41;10.93;;;7.80;;
33491;SDS011;20010;51.488;7.232;2022-07-22T03:31:10;9.40;;;7.93;;
33491;SDS011;20010;51.488;7.232;2022-07-22T03:33:42;9.45;;;8.68;;
33491;SDS011;20010;51.488;7.232;2022-07-22T03:36:10;10.02;;;8.07;;
33491;SDS011;20010;51.488;7.232;2022-07-22T03:38:38;8.60;;;7.82;;
33491;SDS011;20010;51.488;7.232;2022-07-22T03:41:08;10.30;;;7.95;;
33491;SDS011;20010;51.488;7.232;2022-07-22T03:43:38;9.68;;;8.73;;
33491;SDS011;20010;51.488;7.232;2022-07-22T03:46:08;9.00;;;8.10;;
33491;SDS011;20010;51.488;7.232;2022-07-22T03:48:39;13.68;;;9.13;;
33491;SDS011;20010;51.488;7.232;2022-07-22T03:51:13;11.00;;;8.23;;
33491;SDS011;20010;51.488;7.232;2022-07-22T03:53:42;9.05;;;8.20;;
33491;SDS011;20010;51.488;7.232;2022-07-22T03:56:10;8.30;;;7.50;;
33491;SDS011;20010;51.488;7.232;2022-07-22T03:58:38;9.70;;;8.85;;
33491;SDS011;20010;51.488;7.232;2022-07-22T04:01:07;13.63;;;9.20;;
33491;SDS011;20010;51.488;7.232;2022-07-22T04:03:39;10.80;;;7.88;;
33491;SDS011;20010;51.488;7.232;2022-07-22T04:06:11;8.80;;;8.00;;
33491;SDS011;20010;51.488;7.232;2022-07-22T04:08:40;13.20;;;9.50;;
33491;SDS011;20010;51.488;7.232;2022-07-22T04:11:15;10.43;;;8.70;;
33491;SDS011;20010;51.488;7.232;2022-07-22T04:13:47;10.20;;;8.18;;
33491;SDS011;20010;51.488;7.232;2022-07-22T04:16:18;12.23;;;9.30;;
33491;SDS011;20010;51.488;7.232;2022-07-22T04:19:03;8.38;;;7.57;;
33491;SDS011;20010;51.488;7.232;2022-07-22T04:21:32;10.88;;;9.25;;
33491;SDS011;20010;51.488;7.232;2022-07-22T04:24:02;9.82;;;8.95;;
33491;SDS011;20010;51.488;7.232;2022-07-22T04:26:32;8.80;;;8.00;;
33491;SDS011;20010;51.488;7.232;2022-07-22T04:29:00;9.55;;;8.73;;
33491;SDS011;20010;51.488;7.232;2022-07-22T04:31:30;10.73;;;7.95;;
33491;SDS011;20010;51.488;7.232;2022-07-22T04:34:05;8.90;;;8.10;;
33491;SDS011;20010;51.488;7.232;2022-07-22T04:36:36;9.65;;;8.73;;
33491;SDS011;20010;51.488;7.232;2022-07-22T04:39:29;9.60;;;8.80;;
33491;SDS011;20010;51.488;7.232;2022-07-22T04:42:00;9.77;;;8.57;;
33491;SDS011;20010;51.488;7.232;2022-07-22T04:44:37;11.68;;;8.38;;
33491;SDS011;20010;51.488;7.232;2022-07-22T04:47:05;11.80;;;8.57;;
33491;SDS011;20010;51.488;7.232;2022-07-22T04:49:35;11.07;;;7.97;;
33491;SDS011;20010;51.488;7.232;2022-07-22T04:52:05;8.52;;;7.43;;
33491;SDS011;20010;51.488;7.232;2022-07-22T04:54:35;11.98;;;8.05;;
33491;SDS011;20010;51.488;7.232;2022-07-22T04:57:02;9.30;;;8.30;;
33491;SDS011;20010;51.488;7.232;2022-07-22T04:59:43;9.88;;;8.05;;
33491;SDS011;20010;51.488;7.232;2022-07-22T05:02:13;9.40;;;7.85;;
33491;SDS011;20010;51.488;7.232;2022-07-22T05:04:49;11.77;;;7.93;;
33491;SDS011;20010;51.488;7.232;2022-07-22T05:07:28;7.75;;;6.95;;
33491;SDS011;20010;51.488;7.232;2022-07-22T05:10:01;7.82;;;7.10;;
33491;SDS011;20010;51.488;7.232;2022-07-22T05:12:31;9.27;;;6.97;;
33491;SDS011;20010;51.488;7.232;2022-07-22T05:14:59;10.80;;;7.57;;
33491;SDS011;20010;51.488;7.232;2022-07-22T05:17:29;8.47;;;7.03;;
33491;SDS011;20010;51.488;7.232;2022-07-22T05:20:02;10.52;;;8.77;;
33491;SDS011;20010;51.488;7.232;2022-07-22T05:22:33;9.13;;;7.47;;
33491;SDS011;20010;51.488;7.232;2022-07-22T05:25:19;11.68;;;7.03;;
33491;SDS011;20010;51.488;7.232;2022-07-22T05:27:51;9.63;;;6.95;;
33491;SDS011;20010;51.488;7.232;2022-07-22T05:30:24;10.27;;;7.85;;
33491;SDS011;20010;51.488;7.232;2022-07-22T05:32:59;8.80;;;7.07;;
33491;SDS011;20010;51.488;7.232;2022-07-22T05:35:31;9.23;;;7.28;;
33491;SDS011;20010;51.488;7.232;2022-07-22T05:38:00;7.68;;;6.88;;
33491;SDS011;20010;51.488;7.232;2022-07-22T05:40:33;11.20;;;7.75;;
33491;SDS011;20010;51.488;7.232;2022-07-22T05:43:04;9.05;;;7.90;;
33491;SDS011;20010;51.488;7.232;2022-07-22T05:45:33;9.65;;;7.55;;
33491;SDS011;20010;51.488;7.232;2022-07-22T05:48:00;7.53;;;6.82;;
33491;SDS011;20010;51.488;7.232;2022-07-22T05:50:29;7.95;;;7.18;;
33491;SDS011;20010;51.488;7.232;2022-07-22T05:52:58;8.13;;;7.35;;
33491;SDS011;20010;51.488;7.232;2022-07-22T05:55:34;11.30;;;7.53;;
33491;SDS011;20010;51.488;7.232;2022-07-22T05:58:31;6.53;;;5.87;;
33491;SDS011;20010;51.488;7.232;2022-07-22T06:01:02;7.95;;;7.25;;
33491;SDS011;20010;51.488;7.232;2022-07-22T06:03:34;8.10;;;7.25;;
33491;SDS011;20010;51.488;7.232;2022-07-22T06:06:06;6.78;;;6.15;;
33491;SDS011;20010;51.488;7.232;2022-07-22T06:08:44;6.43;;;6.03;;
33491;SDS011;20010;51.488;7.232;2022-07-22T06:11:23;7.43;;;6.60;;
33491;SDS011;20010;51.488;7.232;2022-07-22T06:13:51;6.43;;;5.78;;
33491;SDS011;20010;51.488;7.232;2022-07-22T06:16:21;6.70;;;5.93;;
33491;SDS011;20010;51.488;7.232;2022-07-22T06:18:50;7.75;;;6.28;;
33491;SDS011;20010;51.488;7.232;2022-07-22T06:21:29;7.80;;;6.10;;
33491;SDS011;20010;51.488;7.232;2022-07-22T06:23:58;6.25;;;5.75;;
33491;SDS011;20010;51.488;7.232;2022-07-22T06:26:29;6.75;;;6.07;;
33491;SDS011;20010;51.488;7.232;2022-07-22T06:28:59;6.75;;;5.97;;
33491;SDS011;20010;51.488;7.232;2022-07-22T06:31:29;6.20;;;5.53;;
33491;SDS011;20010;51.488;7.232;2022-07-22T06:34:12;6.05;;;5.65;;
33491;SDS011;20010;51.488;7.232;2022-07-22T06:36:42;9.02;;;6.22;;
33491;SDS011;20010;51.488;7.232;2022-07-22T06:39:17;7.93;;;6.03;;
33491;SDS011;20010;51.488;7.232;2022-07-22T06:41:57;7.45;;;6.60;;
33491;SDS011;20010;51.488;7.232;2022-07-22T06:44:25;7.13;;;6.57;;
33491;SDS011;20010;51.488;7.232;2022-07-22T06:47:09;6.18;;;5.57;;
33491;SDS011;20010;51.488;7.232;2022-07-22T06:50:11;6.65;;;5.93;;
33491;SDS011;20010;51.488;7.232;2022-07-22T06:52:54;7.45;;;5.65;;
33491;SDS011;20010;51.488;7.232;2022-07-22T06:55:27;6.78;;;6.10;;
33491;SDS011;20010;51.488;7.232;2022-07-22T06:57:57;6.90;;;6.20;;
33491;SDS011;20010;51.488;7.232;2022-07-22T07:00:30;6.93;;;6.15;;
33491;SDS011;20010;51.488;7.232;2022-07-22T07:03:05;5.95;;;5.40;;
33491;SDS011;20010;51.488;7.232;2022-07-22T07:05:53;7.03;;;6.43;;
33491;SDS011;20010;51.488;7.232;2022-07-22T07:08:29;9.93;;;6.20;;
33491;SDS011;20010;51.488;7.232;2022-07-22T07:11:14;7.30;;;6.25;;
33491;SDS011;20010;51.488;7.232;2022-07-22T07:13:46;6.15;;;5.65;;
33491;SDS011;20010;51.488;7.232;2022-07-22T07:16:19;6.20;;;5.68;;
33491;SDS011;20010;51.488;7.232;2022-07-22T07:18:48;6.50;;;6.00;;
33491;SDS011;20010;51.488;7.232;2022-07-22T07:21:21;6.38;;;5.80;;
33491;SDS011;20010;51.488;7.232;2022-07-22T07:23:49;6.05;;;5.65;;
33491;SDS011;20010;51.488;7.232;2022-07-22T07:26:17;5.75;;;5.35;;
33491;SDS011;20010;51.488;7.232;2022-07-22T07:28:52;7.32;;;5.45;;
33491;SDS011;20010;51.488;7.232;2022-07-22T07:31:24;5.43;;;5.18;;
33491;SDS011;20010;51.488;7.232;2022-07-22T07:34:00;5.70;;;5.20;;
33491;SDS011;20010;51.488;7.232;2022-07-22T07:36:30;5.95;;;5.40;;
33491;SDS011;20010;51.488;7.232;2022-07-22T07:38:59;8.35;;;5.43;;
33491;SDS011;20010;51.488;7.232;2022-07-22T07:41:30;6.68;;;6.15;;
33491;SDS011;20010;51.488;7.232;2022-07-22T07:44:00;5.68;;;5.28;;
33491;SDS011;20010;51.488;7.232;2022-07-22T07:46:44;6.60;;;5.97;;
33491;SDS011;20010;51.488;7.232;2022-07-22T07:49:30;6.57;;;5.95;;
33491;SDS011;20010;51.488;7.232;2022-07-22T07:52:00;6.43;;;6.03;;
33491;SDS011;20010;51.488;7.232;2022-07-22T07:54:29;7.30;;;6.70;;
33491;SDS011;20010;51.488;7.232;2022-07-22T07:57:20;8.05;;;7.30;;
33491;SDS011;20010;51.488;7.232;2022-07-22T07:59:50;6.68;;;6.28;;
33491;SDS011;20010;51.488;7.232;2022-07-22T08:02:21;6.80;;;6.30;;
33491;SDS011;20010;51.488;7.232;2022-07-22T08:05:02;6.75;;;6.25;;
33491;SDS011;20010;51.488;7.232;2022-07-22T08:07:35;7.03;;;6.53;;
33491;SDS011;20010;51.488;7.232;2022-07-22T08:10:13;7.07;;;6.57;;
33491;SDS011;20010;51.488;7.232;2022-07-22T08:13:01;6.93;;;6.38;;
33491;SDS011;20010;51.488;7.232;2022-07-22T08:15:46;6.80;;;6.40;;
33491;SDS011;20010;51.488;7.232;2022-07-22T08:18:14;7.00;;;6.50;;
33491;SDS011;20010;51.488;7.232;2022-07-22T08:20:44;7.55;;;6.78;;
33491;SDS011;20010;51.488;7.232;2022-07-22T08:23:29;6.80;;;6.30;;
33491;SDS011;20010;51.488;7.232;2022-07-22T08:25:57;6.70;;;6.22;;
33491;SDS011;20010;51.488;7.232;2022-07-22T08:28:28;8.25;;;7.35;;
33491;SDS011;20010;51.488;7.232;2022-07-22T08:30:58;7.37;;;6.87;;
33491;SDS011;20010;51.488;7.232;2022-07-22T08:33:31;7.88;;;7.20;;
33491;SDS011;20010;51.488;7.232;2022-07-22T08:36:03;8.18;;;7.47;;
33491;SDS011;20010;51.488;7.232;2022-07-22T08:38:44;8.65;;;8.02;;
33491;SDS011;20010;51.488;7.232;2022-07-22T08:41:26;7.68;;;7.18;;
33491;SDS011;20010;51.488;7.232;2022-07-22T08:44:08;8.93;;;8.32;;
33491;SDS011;20010;51.488;7.232;2022-07-22T08:46:46;8.88;;;8.38;;
33491;SDS011;20010;51.488;7.232;2022-07-22T08:49:14;8.10;;;7.50;;
33491;SDS011;20010;51.488;7.232;2022-07-22T08:51:47;8.85;;;8.00;;
33491;SDS011;20010;51.488;7.232;2022-07-22T08:54:20;8.77;;;8.18;;
33491;SDS011;20010;51.488;7.232;2022-07-22T08:57:13;8.70;;;8.10;;
33491;SDS011;20010;51.488;7.232;2022-07-22T08:59:54;9.25;;;8.55;;
33491;SDS011;20010;51.488;7.232;2022-07-22T09:02:23;9.57;;;8.77;;
33491;SDS011;20010;51.488;7.232;2022-07-22T09:07:30;9.63;;;8.65;;
33491;SDS011;20010;51.488;7.232;2022-07-22T09:10:06;9.32;;;8.63;;
33491;SDS011;20010;51.488;7.232;2022-07-22T09:12:54;9.95;;;9.00;;
33491;SDS011;20010;51.488;7.232;2022-07-22T09:15:34;9.93;;;9.25;;
33491;SDS011;20010;51.488;7.232;2022-07-22T09:18:44;10.00;;;9.30;;
33491;SDS011;20010;51.488;7.232;2022-07-22T09:21:35;10.73;;;9.88;;
33491;SDS011;20010;51.488;7.232;2022-07-22T09:27:24;10.90;;;10.13;;
33491;SDS011;20010;51.488;7.232;2022-07-22T09:30:02;11.20;;;10.40;;
33491;SDS011;20010;51.488;7.232;2022-07-22T09:32:39;11.98;;;11.07;;
33491;SDS011;20010;51.488;7.232;2022-07-22T09:35:09;12.57;;;11.55;;
33491;SDS011;20010;51.488;7.232;2022-07-22T09:37:48;15.10;;;13.85;;
33491;SDS011;20010;51.488;7.232;2022-07-22T09:40:22;13.85;;;12.75;;
33491;SDS011;20010;51.488;7.232;2022-07-22T09:42:59;14.35;;;13.25;;
33491;SDS011;20010;51.488;7.232;2022-07-22T09:45:51;12.68;;;11.73;;
33491;SDS011;20010;51.488;7.232;2022-07-22T09:48:29;12.98;;;11.98;;
33491;SDS011;20010;51.488;7.232;2022-07-22T09:51:00;12.30;;;11.50;;
33491;SDS011;20010;51.488;7.232;2022-07-22T09:53:29;13.02;;;12.07;;
33491;SDS011;20010;51.488;7.232;2022-07-22T09:55:58;13.02;;;12.15;;
33491;SDS011;20010;51.488;7.232;2022-07-22T09:58:30;11.98;;;11.00;;
33491;SDS011;20010;51.488;7.232;2022-07-22T10:01:02;13.52;;;12.30;;
33491;SDS011;20010;51.488;7.232;2022-07-22T10:03:33;11.82;;;10.90;;
33491;SDS011;20010;51.488;7.232;2022-07-22T10:06:04;11.85;;;10.90;;
33491;SDS011;20010;51.488;7.232;2022-07-22T10:08:37;12.05;;;11.15;;
33491;SDS011;20010;51.488;7.232;2022-07-22T10:11:07;12.63;;;11.50;;
33491;SDS011;20010;51.488;7.232;2022-07-22T10:13:38;12.00;;;11.20;;
33491;SDS011;20010;51.488;7.232;2022-07-22T10:16:21;11.85;;;11.05;;
33491;SDS011;20010;51.488;7.232;2022-07-22T10:18:49;12.40;;;11.38;;
33491;SDS011;20010;51.488;7.232;2022-07-22T10:21:20;12.27;;;11.27;;
33491;SDS011;20010;51.488;7.232;2022-07-22T10:24:24;13.25;;;12.18;;
33491;SDS011;20010;51.488;7.232;2022-07-22T10:26:59;12.60;;;11.55;;
33491;SDS011;20010;51.488;7.232;2022-07-22T10:37:38;13.10;;;11.90;;
33491;SDS011;20010;51.488;7.232;2022-07-22T10:40:14;14.18;;;13.10;;
33491;SDS011;20010;51.488;7.232;2022-07-22T10:45:30;14.43;;;13.23;;
33491;SDS011;20010;51.488;7.232;2022-07-22T10:48:14;16.35;;;14.82;;
33491;SDS011;20010;51.488;7.232;2022-07-22T10:50:54;16.95;;;15.25;;
33491;SDS011;20010;51.488;7.232;2022-07-22T10:56:33;16.48;;;15.02;;
33491;SDS011;20010;51.488;7.232;2022-07-22T10:59:11;15.93;;;14.43;;
33491;SDS011;20010;51.488;7.232;2022-07-22T11:01:45;19.23;;;17.33;;
33491;SDS011;20010;51.488;7.232;2022-07-22T11:04:18;19.02;;;17.25;;
33491;SDS011;20010;51.488;7.232;2022-07-22T11:06:58;22.23;;;19.27;;
33491;SDS011;20010;51.488;7.232;2022-07-22T11:09:47;21.85;;;19.15;;
33491;SDS011;20010;51.488;7.232;2022-07-22T11:12:17;20.08;;;18.08;;
33491;SDS011;20010;51.488;7.232;2022-07-22T11:14:48;19.20;;;17.23;;
33491;SDS011;20010;51.488;7.232;2022-07-22T11:17:26;20.42;;;18.70;;
33491;SDS011;20010;51.488;7.232;2022-07-22T11:19:55;21.50;;;19.65;;
33491;SDS011;20010;51.488;7.232;2022-07-22T11:22:26;21.10;;;19.08;;
33491;SDS011;20010;51.488;7.232;2022-07-22T11:25:03;19.83;;;18.13;;
33491;SDS011;20010;51.488;7.232;2022-07-22T11:27:33;19.85;;;18.20;;
33491;SDS011;20010;51.488;7.232;2022-07-22T11:30:03;18.08;;;16.55;;
33491;SDS011;20010;51.488;7.232;2022-07-22T11:32:40;20.30;;;18.40;;
33491;SDS011;20010;51.488;7.232;2022-07-22T11:35:14;18.67;;;16.98;;
33491;SDS011;20010;51.488;7.232;2022-07-22T11:37:42;20.83;;;18.92;;
33491;SDS011;20010;51.488;7.232;2022-07-22T11:40:11;22.58;;;20.38;;
33491;SDS011;20010;51.488;7.232;2022-07-22T11:43:01;22.83;;;20.45;;
33491;SDS011;20010;51.488;7.232;2022-07-22T11:45:34;22.40;;;19.73;;
33491;SDS011;20010;51.488;7.232;2022-07-22T11:48:09;20.90;;;18.90;;
33491;SDS011;20010;51.488;7.232;2022-07-22T11:50:41;21.93;;;19.83;;
33491;SDS011;20010;51.488;7.232;2022-07-22T11:53:21;22.35;;;20.05;;
33491;SDS011;20010;51.488;7.232;2022-07-22T11:55:48;21.60;;;19.65;;
33491;SDS011;20010;51.488;7.232;2022-07-22T11:58:16;21.38;;;19.00;;
33491;SDS011;20010;51.488;7.232;2022-07-22T12:00:45;20.98;;;19.08;;
33491;SDS011;20010;51.488;7.232;2022-07-22T12:03:20;21.67;;;19.67;;
33491;SDS011;20010;51.488;7.232;2022-07-22T12:06:02;22.33;;;20.15;;
33491;SDS011;20010;51.488;7.232;2022-07-22T12:08:34;22.13;;;19.70;;
33491;SDS011;20010;51.488;7.232;2022-07-22T12:11:08;21.17;;;19.10;;
33491;SDS011;20010;51.488;7.232;2022-07-22T12:13:48;21.55;;;19.48;;
33491;SDS011;20010;51.488;7.232;2022-07-22T12:16:25;24.50;;;22.08;;
33491;SDS011;20010;51.488;7.232;2022-07-22T12:19:08;21.92;;;19.83;;
33491;SDS011;20010;51.488;7.232;2022-07-22T12:21:56;22.92;;;20.80;;
33491;SDS011;20010;51.488;7.232;2022-07-22T12:24:42;20.70;;;18.67;;
33491;SDS011;20010;51.488;7.232;2022-07-22T12:27:12;22.08;;;19.85;;
33491;SDS011;20010;51.488;7.232;2022-07-22T12:29:49;22.45;;;20.30;;
33491;SDS011;20010;51.488;7.232;2022-07-22T12:37:51;24.45;;;21.95;;
33491;SDS011;20010;51.488;7.232;2022-07-22T12:40:21;21.52;;;19.52;;
33491;SDS011;20010;51.488;7.232;2022-07-22T12:43:00;23.63;;;21.23;;
33491;SDS011;20010;51.488;7.232;2022-07-22T12:45:46;22.98;;;19.98;;
33491;SDS011;20010;51.488;7.232;2022-07-22T12:48:15;23.38;;;20.98;;
33491;SDS011;20010;51.488;7.232;2022-07-22T12:50:57;22.95;;;20.80;;
33491;SDS011;20010;51.488;7.232;2022-07-22T12:53:27;23.33;;;20.92;;
33491;SDS011;20010;51.488;7.232;2022-07-22T12:55:56;23.35;;;20.90;;
33491;SDS011;20010;51.488;7.232;2022-07-22T12:58:29;22.50;;;20.40;;
33491;SDS011;20010;51.488;7.232;2022-07-22T13:01:02;22.90;;;20.60;;
33491;SDS011;20010;51.488;7.232;2022-07-22T13:03:55;21.95;;;19.75;;
33491;SDS011;20010;51.488;7.232;2022-07-22T13:06:22;20.25;;;18.55;;
33491;SDS011;20010;51.488;7.232;2022-07-22T13:08:53;21.98;;;19.77;;
33491;SDS011;20010;51.488;7.232;2022-07-22T13:11:23;20.98;;;19.00;;
33491;SDS011;20010;51.488;7.232;2022-07-22T13:13:55;19.77;;;17.83;;
33491;SDS011;20010;51.488;7.232;2022-07-22T13:16:26;19.90;;;18.20;;
33491;SDS011;20010;51.488;7.232;2022-07-22T13:21:29;21.17;;;19.33;;
33491;SDS011;20010;51.488;7.232;2022-07-22T13:23:57;19.77;;;17.98;;
33491;SDS011;20010;51.488;7.232;2022-07-22T13:26:27;21.67;;;19.48;;
33491;SDS011;20010;51.488;7.232;2022-07-22T13:28:54;22.13;;;20.02;;
33491;SDS011;20010;51.488;7.232;2022-07-22T13:31:25;21.42;;;19.42;;
33491;SDS011;20010;51.488;7.232;2022-07-22T13:33:53;22.70;;;20.60;;
33491;SDS011;20010;51.488;7.232;2022-07-22T13:36:23;21.33;;;19.23;;
33491;SDS011;20010;51.488;7.232;2022-07-22T13:38:54;21.45;;;19.52;;
33491;SDS011;20010;51.488;7.232;2022-07-22T13:41:28;19.90;;;18.10;;
33491;SDS011;20010;51.488;7.232;2022-07-22T13:43:59;20.90;;;18.20;;
33491;SDS011;20010;51.488;7.232;2022-07-22T13:46:38;20.20;;;18.33;;
33491;SDS011;20010;51.488;7.232;2022-07-22T13:49:07;21.48;;;19.63;;
33491;SDS011;20010;51.488;7.232;2022-07-22T13:51:35;19.75;;;18.08;;
33491;SDS011;20010;51.488;7.232;2022-07-22T13:54:05;19.65;;;18.15;;
33491;SDS011;20010;51.488;7.232;2022-07-22T13:56:39;19.88;;;18.17;;
33491;SDS011;20010;51.488;7.232;2022-07-22T13:59:17;19.80;;;18.08;;
33491;SDS011;20010;51.488;7.232;2022-07-22T14:01:45;19.10;;;17.40;;
33491;SDS011;20010;51.488;7.232;2022-07-22T14:04:14;19.63;;;17.92;;
33491;SDS011;20010;51.488;7.232;2022-07-22T14:06:55;20.23;;;18.27;;
33491;SDS011;20010;51.488;7.232;2022-07-22T14:09:28;19.83;;;18.05;;
33491;SDS011;20010;51.488;7.232;2022-07-22T14:12:04;19.08;;;17.48;;
33491;SDS011;20010;51.488;7.232;2022-07-22T14:14:42;20.13;;;18.38;;
33491;SDS011;20010;51.488;7.232;2022-07-22T14:17:12;19.27;;;17.58;;
33491;SDS011;20010;51.488;7.232;2022-07-22T14:19:48;19.88;;;18.27;;
33491;SDS011;20010;51.488;7.232;2022-07-22T14:22:26;18.08;;;16.58;;
33491;SDS011;20010;51.488;7.232;2022-07-22T14:24:57;19.02;;;17.42;;
33491;SDS011;20010;51.488;7.232;2022-07-22T14:27:24;19.10;;;17.60;;
33491;SDS011;20010;51.488;7.232;2022-07-22T14:29:52;19.98;;;18.20;;
33491;SDS011;20010;51.488;7.232;2022-07-22T14:32:22;19.75;;;18.17;;
33491;SDS011;20010;51.488;7.232;2022-07-22T14:34:49;19.52;;;17.83;;
33491;SDS011;20010;51.488;7.232;2022-07-22T14:37:19;18.15;;;16.73;;
33491;SDS011;20010;51.488;7.232;2022-07-22T14:39:52;17.73;;;16.20;;
33491;SDS011;20010;51.488;7.232;2022-07-22T14:42:20;18.45;;;16.90;;
33491;SDS011;20010;51.488;7.232;2022-07-22T14:44:47;18.67;;;17.05;;
33491;SDS011;20010;51.488;7.232;2022-07-22T14:47:15;18.52;;;16.83;;
33491;SDS011;20010;51.488;7.232;2022-07-22T14:49:42;17.80;;;16.25;;
33491;SDS011;20010;51.488;7.232;2022-07-22T14:52:12;18.15;;;16.60;;
33491;SDS011;20010;51.488;7.232;2022-07-22T14:54:55;17.38;;;15.85;;
33491;SDS011;20010;51.488;7.232;2022-07-22T14:57:30;18.35;;;16.73;;
33491;SDS011;20010;51.488;7.232;2022-07-22T14:59:57;17.95;;;16.48;;
33491;SDS011;20010;51.488;7.232;2022-07-22T15:02:46;17.17;;;15.98;;
33491;SDS011;20010;51.488;7.232;2022-07-22T15:05:16;16.85;;;15.55;;
33491;SDS011;20010;51.488;7.232;2022-07-22T15:07:50;16.20;;;14.77;;
33491;SDS011;20010;51.488;7.232;2022-07-22T15:10:25;16.58;;;15.23;;
33491;SDS011;20010;51.488;7.232;2022-07-22T15:13:02;16.73;;;15.45;;
33491;SDS011;20010;51.488;7.232;2022-07-22T15:15:35;16.45;;;15.18;;
33491;SDS011;20010;51.488;7.232;2022-07-22T15:18:05;16.88;;;15.45;;
33491;SDS011;20010;51.488;7.232;2022-07-22T15:20:44;16.17;;;14.77;;
33491;SDS011;20010;51.488;7.232;2022-07-22T15:23:23;16.70;;;15.20;;
33491;SDS011;20010;51.488;7.232;2022-07-22T15:25:59;16.20;;;14.90;;
33491;SDS011;20010;51.488;7.232;2022-07-22T15:28:30;15.07;;;13.85;;
33491;SDS011;20010;51.488;7.232;2022-07-22T15:31:02;17.02;;;15.73;;
33491;SDS011;20010;51.488;7.232;2022-07-22T15:33:38;16.52;;;15.13;;
33491;SDS011;20010;51.488;7.232;2022-07-22T15:36:06;15.75;;;14.40;;
33491;SDS011;20010;51.488;7.232;2022-07-22T15:41:07;17.27;;;15.63;;
33491;SDS011;20010;51.488;7.232;2022-07-22T15:43:42;17.35;;;15.75;;
33491;SDS011;20010;51.488;7.232;2022-07-22T15:46:11;17.25;;;15.70;;
33491;SDS011;20010;51.488;7.232;2022-07-22T15:48:41;17.90;;;16.30;;
33491;SDS011;20010;51.488;7.232;2022-07-22T15:51:17;16.20;;;14.80;;